createdAt,value
2022-12-31T00:00:22.653Z,0.90
2022-12-31T00:02:49.549Z,0.90
2022-12-31T00:05:17.803Z,0.90
2022-12-31T00:07:44.833Z,0.80
2022-12-31T00:10:11.715Z,0.73
2022-12-31T00:12:38.614Z,0.97
2022-12-31T00:15:05.958Z,0.60
2022-12-31T00:17:32.674Z,0.63
2022-12-31T00:19:59.727Z,0.70
2022-12-31T00:22:26.548Z,0.73
2022-12-31T00:24:53.531Z,0.70
2022-12-31T00:27:22.358Z,0.90
2022-12-31T00:29:49.083Z,0.70
2022-12-31T00:32:16.512Z,0.60
2022-12-31T00:34:43.235Z,0.87
2022-12-31T00:37:10.125Z,0.80
2022-12-31T00:39:37.299Z,0.60
2022-12-31T00:42:04.116Z,0.70
2022-12-31T00:44:31.151Z,0.60
2022-12-31T00:46:57.864Z,0.60
2022-12-31T00:49:24.696Z,1.20
2022-12-31T00:51:52.256Z,0.80
2022-12-31T00:54:19.026Z,0.77
2022-12-31T00:56:46.117Z,0.70
2022-12-31T00:59:12.967Z,0.50
2022-12-31T01:01:40.834Z,0.80
2022-12-31T01:04:13.818Z,0.77
2022-12-31T01:06:41.616Z,0.67
2022-12-31T01:09:09.604Z,0.60
2022-12-31T01:11:36.516Z,0.60
2022-12-31T01:14:15.744Z,0.70
2022-12-31T01:16:51.404Z,0.30
2022-12-31T01:19:24.320Z,0.40
2022-12-31T01:21:52.556Z,0.30
2022-12-31T01:24:20.523Z,0.30
2022-12-31T01:26:49.263Z,0.10
2022-12-31T01:29:17.050Z,0.10
2022-12-31T01:31:44.015Z,0.20
2022-12-31T01:34:10.818Z,0.10
2022-12-31T01:36:39.088Z,0.10
2022-12-31T01:39:07.736Z,0.10
2022-12-31T01:41:40.225Z,0.00
2022-12-31T01:44:12.693Z,1.10
2022-12-31T01:46:45.385Z,0.10
2022-12-31T01:49:36.837Z,0.10
2022-12-31T01:52:08.973Z,0.30
2022-12-31T01:54:43.043Z,0.10
2022-12-31T01:57:11.316Z,0.10
2022-12-31T01:59:38.374Z,0.10
2022-12-31T02:02:06.106Z,0.00
2022-12-31T02:04:33.179Z,0.10
2022-12-31T02:07:07.093Z,0.00
2022-12-31T02:09:38.243Z,0.10
2022-12-31T02:12:06.330Z,0.10
2022-12-31T02:14:39.803Z,0.20
2022-12-31T02:17:22.615Z,0.03
2022-12-31T02:20:19.409Z,0.10
2022-12-31T02:23:17.020Z,0.10
2022-12-31T02:25:50.097Z,0.10
2022-12-31T02:28:38.660Z,0.10
2022-12-31T02:31:17.164Z,0.10
2022-12-31T02:33:52.790Z,0.10
2022-12-31T02:36:24.722Z,0.10
2022-12-31T02:38:52.967Z,0.10
2022-12-31T02:41:39.416Z,0.27
2022-12-31T02:44:39.606Z,0.10
2022-12-31T02:47:09.135Z,0.10
2022-12-31T02:50:13.350Z,0.10
2022-12-31T02:53:01.972Z,0.13
2022-12-31T02:55:47.243Z,0.10
2022-12-31T02:58:20.795Z,0.10
2022-12-31T03:01:15.041Z,0.10
2022-12-31T03:03:43.225Z,0.17
2022-12-31T03:06:11.568Z,0.10
2022-12-31T03:09:01.275Z,0.20
2022-12-31T03:11:57.612Z,0.10
2022-12-31T03:14:24.293Z,0.20
2022-12-31T03:16:51.745Z,0.20
2022-12-31T03:19:37.208Z,0.20
2022-12-31T03:22:22.510Z,0.17
2022-12-31T03:25:09.169Z,0.20
2022-12-31T03:27:35.923Z,0.17
2022-12-31T03:30:03.209Z,0.17
2022-12-31T03:32:30.456Z,0.60
2022-12-31T03:34:58.134Z,0.13
2022-12-31T03:37:24.846Z,0.10
2022-12-31T03:39:51.631Z,0.20
2022-12-31T03:42:18.520Z,0.10
2022-12-31T03:44:45.222Z,0.10
2022-12-31T03:47:11.991Z,0.10
2022-12-31T03:49:39.076Z,0.10
2022-12-31T03:52:06.533Z,0.10
2022-12-31T03:54:33.723Z,0.10
2022-12-31T03:57:00.576Z,0.30
2022-12-31T03:59:27.437Z,0.10
2022-12-31T04:01:54.314Z,0.20
2022-12-31T04:04:21.182Z,0.20
2022-12-31T04:06:48.260Z,0.10
2022-12-31T04:09:15.053Z,0.10
2022-12-31T04:11:41.736Z,0.20
2022-12-31T04:14:09.185Z,0.10
2022-12-31T04:16:35.944Z,0.10
2022-12-31T04:19:03.850Z,0.20
2022-12-31T04:21:34.964Z,0.20
2022-12-31T04:24:02.985Z,0.30
2022-12-31T04:26:29.869Z,0.23
2022-12-31T04:28:56.721Z,0.20
2022-12-31T04:31:24.021Z,0.13
2022-12-31T04:33:50.758Z,0.20
2022-12-31T04:36:18.561Z,0.20
2022-12-31T04:38:45.253Z,0.10
2022-12-31T04:41:18.020Z,0.10
2022-12-31T04:43:48.011Z,0.00
2022-12-31T04:46:15.577Z,0.20
2022-12-31T04:48:42.560Z,0.10
2022-12-31T04:51:09.609Z,0.20
2022-12-31T04:53:36.556Z,0.20
2022-12-31T04:56:03.955Z,0.10
2022-12-31T04:58:30.606Z,0.17
2022-12-31T05:00:57.733Z,0.40
2022-12-31T05:03:26.229Z,0.33
2022-12-31T05:05:54.623Z,0.07
2022-12-31T05:08:21.357Z,0.20
2022-12-31T05:10:49.682Z,0.10
2022-12-31T05:13:17.074Z,0.10
2022-12-31T05:15:45.832Z,0.10
2022-12-31T05:18:12.541Z,0.30
2022-12-31T05:20:39.931Z,0.20
2022-12-31T05:23:06.642Z,0.30
2022-12-31T05:25:34.067Z,0.10
2022-12-31T05:28:01.297Z,0.33
2022-12-31T05:30:28.131Z,0.20
2022-12-31T05:32:55.107Z,0.17
2022-12-31T05:35:22.377Z,0.20
2022-12-31T05:37:49.088Z,1.33
2022-12-31T05:40:15.866Z,0.20
2022-12-31T05:42:42.609Z,0.20
2022-12-31T05:45:13.479Z,0.50
2022-12-31T05:47:41.097Z,0.17
2022-12-31T05:50:15.388Z,0.30
2022-12-31T05:52:47.425Z,0.20
2022-12-31T05:55:14.657Z,0.30
2022-12-31T05:57:41.888Z,0.17
2022-12-31T06:00:11.027Z,0.20
2022-12-31T06:02:41.205Z,0.20
2022-12-31T06:05:09.025Z,0.30
2022-12-31T06:07:35.825Z,0.20
2022-12-31T06:10:05.447Z,0.30
2022-12-31T06:12:32.887Z,0.30
2022-12-31T06:14:59.752Z,0.33
2022-12-31T06:17:26.526Z,0.73
2022-12-31T06:19:53.238Z,0.20
2022-12-31T06:22:20.000Z,0.27
2022-12-31T06:24:46.810Z,0.20
2022-12-31T06:27:13.567Z,0.20
2022-12-31T06:29:41.047Z,0.20
2022-12-31T06:32:07.919Z,0.10
2022-12-31T06:34:34.675Z,0.20
2022-12-31T06:37:01.384Z,0.10
2022-12-31T06:39:28.206Z,0.40
2022-12-31T06:41:55.959Z,0.30
2022-12-31T06:44:22.871Z,0.20
2022-12-31T06:46:50.750Z,0.30
2022-12-31T06:49:18.329Z,0.40
2022-12-31T06:51:46.245Z,0.30
2022-12-31T06:54:13.762Z,0.30
2022-12-31T06:56:41.896Z,0.50
2022-12-31T06:59:23.105Z,0.80
2022-12-31T07:02:04.720Z,0.40
2022-12-31T07:04:37.554Z,0.30
2022-12-31T07:07:12.830Z,0.20
2022-12-31T07:09:54.987Z,0.30
2022-12-31T07:12:40.994Z,0.20
2022-12-31T07:15:11.172Z,0.30
2022-12-31T07:17:52.486Z,0.30
2022-12-31T07:20:20.685Z,0.50
2022-12-31T07:22:48.499Z,0.30
2022-12-31T07:25:17.119Z,0.40
2022-12-31T07:28:00.515Z,0.23
2022-12-31T07:30:44.151Z,0.20
2022-12-31T07:33:32.274Z,0.40
2022-12-31T07:36:40.363Z,0.40
2022-12-31T07:39:11.221Z,0.40
2022-12-31T07:42:01.994Z,0.20
2022-12-31T07:44:40.895Z,0.30
2022-12-31T07:47:22.795Z,0.40
2022-12-31T07:49:50.360Z,0.30
2022-12-31T07:52:17.567Z,0.20
2022-12-31T07:54:44.484Z,0.30
2022-12-31T07:57:17.131Z,0.20
2022-12-31T07:59:58.687Z,0.20
2022-12-31T08:02:59.576Z,0.33
2022-12-31T08:06:12.176Z,0.63
2022-12-31T08:08:53.638Z,0.30
2022-12-31T08:11:26.556Z,0.30
2022-12-31T08:13:56.556Z,0.20
2022-12-31T08:16:23.775Z,0.23
2022-12-31T08:18:50.871Z,0.40
2022-12-31T08:21:35.569Z,0.30
2022-12-31T08:24:10.548Z,0.50
2022-12-31T08:27:05.186Z,0.40
2022-12-31T08:29:43.926Z,0.30
2022-12-31T08:32:16.974Z,0.30
2022-12-31T08:34:56.351Z,0.30
2022-12-31T08:37:31.752Z,0.40
2022-12-31T08:40:27.211Z,0.37
2022-12-31T08:43:19.166Z,0.50
2022-12-31T08:45:49.259Z,0.20
2022-12-31T08:48:39.804Z,0.30
2022-12-31T08:51:14.303Z,0.50
2022-12-31T08:53:42.063Z,0.20
2022-12-31T08:56:20.656Z,0.20
2022-12-31T08:59:31.064Z,0.30
2022-12-31T09:02:11.010Z,0.20
2022-12-31T09:04:40.905Z,0.40
2022-12-31T09:07:09.594Z,0.47
2022-12-31T09:09:54.537Z,0.33
2022-12-31T09:12:33.845Z,0.60
2022-12-31T09:15:13.213Z,0.63
2022-12-31T09:17:44.630Z,0.40
2022-12-31T09:20:24.160Z,0.73
2022-12-31T09:22:52.348Z,0.50
2022-12-31T09:25:22.168Z,0.32
2022-12-31T09:27:49.421Z,0.50
2022-12-31T09:30:17.789Z,0.70
2022-12-31T09:33:01.698Z,0.57
2022-12-31T09:35:37.485Z,0.90
2022-12-31T09:38:45.524Z,0.63
2022-12-31T09:41:39.622Z,0.93
2022-12-31T09:44:21.841Z,0.88
2022-12-31T09:47:27.467Z,1.38
2022-12-31T09:50:20.877Z,0.93
2022-12-31T09:53:25.224Z,0.80
2022-12-31T09:56:10.427Z,0.75
2022-12-31T09:59:02.992Z,0.70
2022-12-31T10:01:56.622Z,0.95
2022-12-31T10:04:45.613Z,0.80
2022-12-31T10:07:39.631Z,0.60
2022-12-31T10:10:13.514Z,0.57
2022-12-31T10:13:01.877Z,0.45
2022-12-31T10:15:45.463Z,0.50
2022-12-31T10:18:31.598Z,0.32
2022-12-31T10:21:20.075Z,0.40
2022-12-31T10:24:30.909Z,0.20
2022-12-31T10:27:32.011Z,0.40
2022-12-31T10:30:08.731Z,0.50
2022-12-31T10:32:44.797Z,0.43
2022-12-31T10:35:23.700Z,0.40
2022-12-31T10:38:18.283Z,0.75
2022-12-31T10:41:15.545Z,0.60
2022-12-31T10:44:17.524Z,0.30
2022-12-31T10:47:18.425Z,0.52
2022-12-31T10:50:13.093Z,0.50
2022-12-31T10:52:58.349Z,0.50
2022-12-31T10:55:43.839Z,0.40
2022-12-31T10:58:52.746Z,0.40
2022-12-31T11:01:34.870Z,0.55
2022-12-31T11:04:14.169Z,0.40
2022-12-31T11:07:02.491Z,0.50
2022-12-31T11:10:07.809Z,0.60
2022-12-31T11:13:01.735Z,0.40
2022-12-31T11:15:50.335Z,0.43
2022-12-31T11:18:20.689Z,0.40
2022-12-31T11:21:09.020Z,0.40
2022-12-31T11:23:46.701Z,0.40
2022-12-31T11:26:22.652Z,0.30
2022-12-31T11:29:13.639Z,0.55
2022-12-31T11:32:01.513Z,0.30
2022-12-31T11:34:37.299Z,0.60
2022-12-31T11:37:22.509Z,0.25
2022-12-31T11:39:52.266Z,0.20
2022-12-31T11:42:41.507Z,0.20
2022-12-31T11:45:21.975Z,0.45
2022-12-31T11:48:29.148Z,0.30
2022-12-31T11:50:50.183Z,0.30
2022-12-31T11:53:57.816Z,0.80
2022-12-31T11:56:28.695Z,0.25
2022-12-31T11:58:57.673Z,0.30
2022-12-31T12:01:36.382Z,0.47
2022-12-31T12:04:03.594Z,0.20
2022-12-31T12:06:33.018Z,0.52
2022-12-31T12:09:04.479Z,0.35
2022-12-31T12:11:35.407Z,0.60
2022-12-31T12:14:31.911Z,0.40
2022-12-31T12:17:04.868Z,0.50
2022-12-31T12:19:34.737Z,0.20
2022-12-31T12:22:13.024Z,0.20
2022-12-31T12:24:39.775Z,0.20
2022-12-31T12:27:21.563Z,0.40
2022-12-31T12:29:48.835Z,0.20
2022-12-31T12:32:21.595Z,0.40
2022-12-31T12:34:50.043Z,0.45
2022-12-31T12:37:33.233Z,0.77
2022-12-31T12:40:09.476Z,0.60
2022-12-31T12:42:36.735Z,0.40
2022-12-31T12:45:29.195Z,0.60
2022-12-31T12:47:59.785Z,0.60
2022-12-31T12:50:38.598Z,0.38
2022-12-31T12:53:05.634Z,0.52
2022-12-31T12:56:17.569Z,0.60
2022-12-31T12:59:02.796Z,0.43
2022-12-31T13:01:53.038Z,0.30
2022-12-31T13:04:35.774Z,0.70
2022-12-31T13:07:18.832Z,0.43
2022-12-31T13:09:57.012Z,0.88
2022-12-31T13:13:05.141Z,1.10
2022-12-31T13:15:31.980Z,0.65
2022-12-31T13:18:14.629Z,0.80
2022-12-31T13:20:57.215Z,0.80
2022-12-31T13:23:39.476Z,0.45
2022-12-31T13:26:22.265Z,0.60
2022-12-31T13:28:52.253Z,0.77
2022-12-31T13:31:30.277Z,0.85
2022-12-31T13:34:04.436Z,0.60
2022-12-31T13:36:35.973Z,0.60
2022-12-31T13:39:08.039Z,0.80
2022-12-31T13:41:41.859Z,0.70
2022-12-31T13:44:08.489Z,0.68
2022-12-31T13:47:00.819Z,1.05
2022-12-31T13:49:39.822Z,1.15
2022-12-31T13:52:27.648Z,1.00
2022-12-31T13:55:08.241Z,1.40
2022-12-31T13:58:08.135Z,1.50
2022-12-31T14:00:47.974Z,1.85
2022-12-31T14:03:40.338Z,2.15
2022-12-31T14:06:14.877Z,1.95
2022-12-31T14:08:41.612Z,4.47
2022-12-31T14:11:23.545Z,2.65
2022-12-31T14:14:12.478Z,1.70
2022-12-31T14:16:52.809Z,1.08
2022-12-31T14:19:55.364Z,0.80
2022-12-31T14:22:43.045Z,1.10
2022-12-31T14:25:36.650Z,5.65
2022-12-31T14:28:06.831Z,2.47
2022-12-31T14:30:39.168Z,1.95
2022-12-31T14:33:08.855Z,1.63
2022-12-31T14:35:45.478Z,8.73
2022-12-31T14:38:19.900Z,6.20
2022-12-31T14:41:23.809Z,3.80
2022-12-31T14:44:02.664Z,1.95
2022-12-31T14:47:15.435Z,1.58
2022-12-31T14:50:00.479Z,1.92
2022-12-31T14:52:35.771Z,1.98
2022-12-31T14:55:17.362Z,3.05
2022-12-31T15:00:33.188Z,2.73
2022-12-31T15:03:33.539Z,5.97
2022-12-31T15:06:23.905Z,3.87
2022-12-31T15:09:08.523Z,2.60
2022-12-31T15:11:46.157Z,10.03
2022-12-31T15:14:44.031Z,4.73
2022-12-31T15:17:22.994Z,3.33
2022-12-31T15:20:16.862Z,2.93
2022-12-31T15:22:53.225Z,2.50
2022-12-31T15:25:26.743Z,2.80
2022-12-31T15:27:54.478Z,2.43
2022-12-31T15:30:56.543Z,2.17
2022-12-31T15:33:35.295Z,1.90
2022-12-31T15:36:35.900Z,2.80
2022-12-31T15:39:11.689Z,2.10
2022-12-31T15:42:36.244Z,1.93
2022-12-31T15:44:55.407Z,1.57
2022-12-31T15:47:37.292Z,1.60
2022-12-31T15:50:08.360Z,1.97
2022-12-31T15:52:38.415Z,1.70
2022-12-31T15:55:06.847Z,1.80
2022-12-31T15:57:38.437Z,2.40
2022-12-31T16:00:19.655Z,2.07
2022-12-31T16:02:48.377Z,2.50
2022-12-31T16:05:24.606Z,2.30
2022-12-31T16:07:56.520Z,1.97
2022-12-31T16:10:33.169Z,1.57
2022-12-31T16:13:00.126Z,1.80
2022-12-31T16:15:30.303Z,1.40
2022-12-31T16:18:03.269Z,1.60
2022-12-31T16:20:32.797Z,1.63
2022-12-31T16:23:03.033Z,1.70
2022-12-31T16:25:33.043Z,1.43
2022-12-31T16:28:02.764Z,2.97
2022-12-31T16:30:36.415Z,2.50
2022-12-31T16:33:06.401Z,2.10
2022-12-31T16:35:39.006Z,2.50
2022-12-31T16:38:18.505Z,2.47
2022-12-31T16:41:16.882Z,2.10
2022-12-31T16:43:44.003Z,2.20
2022-12-31T16:46:31.869Z,2.30
2022-12-31T16:49:04.499Z,3.10
2022-12-31T16:51:36.905Z,1.90
2022-12-31T16:54:04.786Z,1.83
2022-12-31T16:56:36.912Z,2.37
2022-12-31T16:59:12.171Z,2.47
2022-12-31T17:01:40.310Z,3.83
2022-12-31T17:04:12.461Z,4.00
2022-12-31T17:06:39.422Z,3.00
2022-12-31T17:09:32.151Z,1.97
2022-12-31T17:12:16.764Z,2.00
2022-12-31T17:14:51.224Z,2.20
2022-12-31T17:17:27.555Z,4.17
2022-12-31T17:20:00.913Z,7.27
2022-12-31T17:22:35.842Z,26.57
2022-12-31T17:25:28.404Z,3.90
2022-12-31T17:28:00.932Z,2.30
2022-12-31T17:30:27.624Z,3.67
2022-12-31T17:33:07.907Z,1.90
2022-12-31T17:35:37.098Z,2.73
2022-12-31T17:38:22.316Z,18.17
2022-12-31T17:40:53.185Z,3.77
2022-12-31T17:43:22.275Z,2.87
2022-12-31T17:45:54.907Z,2.87
2022-12-31T17:48:24.493Z,3.40
2022-12-31T17:50:58.302Z,5.70
2022-12-31T17:53:25.716Z,3.53
2022-12-31T17:55:55.834Z,2.80
2022-12-31T17:58:32.562Z,2.57
2022-12-31T18:01:01.945Z,2.90
2022-12-31T18:03:28.818Z,3.53
2022-12-31T18:05:55.941Z,3.10
2022-12-31T18:08:23.186Z,3.00
2022-12-31T18:10:52.344Z,2.70
2022-12-31T18:13:25.954Z,4.20
2022-12-31T18:15:54.244Z,3.30
2022-12-31T18:18:27.757Z,3.13
2022-12-31T18:20:58.707Z,5.17
2022-12-31T18:23:26.684Z,4.55
2022-12-31T18:25:54.409Z,3.40
2022-12-31T18:28:21.779Z,3.47
2022-12-31T18:30:48.969Z,3.37
2022-12-31T18:33:22.438Z,2.97
2022-12-31T18:36:10.273Z,3.87
2022-12-31T18:38:37.677Z,3.60
2022-12-31T18:41:05.711Z,3.70
2022-12-31T18:43:33.228Z,4.00
2022-12-31T18:45:59.985Z,3.90
2022-12-31T18:48:26.785Z,4.50
2022-12-31T18:50:53.698Z,5.50
2022-12-31T18:53:23.632Z,5.37
2022-12-31T18:55:51.643Z,5.30
2022-12-31T18:58:18.459Z,5.30
2022-12-31T19:00:45.772Z,6.47
2022-12-31T19:03:19.794Z,6.00
2022-12-31T19:05:51.171Z,6.40
2022-12-31T19:08:20.971Z,6.20
2022-12-31T19:10:50.621Z,6.17
2022-12-31T19:13:19.896Z,6.70
2022-12-31T19:15:51.313Z,6.40
2022-12-31T19:18:19.793Z,7.00
2022-12-31T19:20:47.774Z,5.97
2022-12-31T19:23:22.403Z,6.13
2022-12-31T19:25:49.618Z,6.20
2022-12-31T19:28:22.512Z,6.03
2022-12-31T19:30:49.672Z,7.20
2022-12-31T19:33:23.851Z,7.00
2022-12-31T19:35:50.926Z,7.70
2022-12-31T19:38:21.898Z,6.63
2022-12-31T19:40:50.531Z,7.17
2022-12-31T19:43:20.155Z,7.53
2022-12-31T19:45:48.748Z,7.60
2022-12-31T19:48:24.677Z,6.73
2022-12-31T19:50:56.939Z,6.57
2022-12-31T19:53:26.533Z,6.90
2022-12-31T19:55:54.144Z,6.80
2022-12-31T19:58:25.516Z,6.67
2022-12-31T20:01:01.201Z,7.30
2022-12-31T20:03:29.376Z,6.63
2022-12-31T20:06:09.214Z,6.83
2022-12-31T20:08:37.627Z,6.43
2022-12-31T20:11:17.871Z,6.40
2022-12-31T20:13:46.576Z,4.63
2022-12-31T20:16:17.948Z,4.37
2022-12-31T20:18:46.262Z,4.10
2022-12-31T20:21:17.937Z,6.93
2022-12-31T20:23:44.791Z,5.70
2022-12-31T20:26:12.538Z,7.83
2022-12-31T20:28:39.614Z,8.47
2022-12-31T20:31:12.240Z,8.80
2022-12-31T20:33:39.594Z,7.87
2022-12-31T20:36:08.458Z,7.73
2022-12-31T20:38:35.306Z,6.53
2022-12-31T20:41:07.096Z,6.47
2022-12-31T20:43:35.448Z,6.97
2022-12-31T20:46:19.117Z,5.40
2022-12-31T20:48:48.003Z,5.50
2022-12-31T20:51:16.832Z,6.40
2022-12-31T20:53:59.148Z,5.73
2022-12-31T20:56:29.083Z,4.80
2022-12-31T20:58:56.586Z,4.37
2022-12-31T21:01:25.690Z,5.33
2022-12-31T21:04:10.406Z,4.53
2022-12-31T21:06:37.576Z,3.97
2022-12-31T21:09:07.643Z,3.67
2022-12-31T21:11:54.548Z,3.73
2022-12-31T21:14:21.711Z,4.30
2022-12-31T21:16:49.470Z,3.67
2022-12-31T21:19:16.162Z,4.27
2022-12-31T21:21:43.499Z,4.50
2022-12-31T21:24:10.914Z,4.17
2022-12-31T21:26:37.699Z,3.67
2022-12-31T21:29:05.063Z,4.13
2022-12-31T21:31:31.893Z,3.93
2022-12-31T21:33:58.700Z,3.50
2022-12-31T21:36:25.935Z,3.90
2022-12-31T21:38:53.107Z,3.87
2022-12-31T21:41:38.499Z,36.50
2022-12-31T21:44:05.346Z,8.67
2022-12-31T21:46:32.133Z,4.27
2022-12-31T21:49:00.764Z,14.37
2022-12-31T21:51:28.589Z,4.20
2022-12-31T21:53:55.504Z,3.43
2022-12-31T21:56:23.272Z,3.77
2022-12-31T21:59:17.229Z,4.10
2022-12-31T22:02:03.694Z,3.60
2022-12-31T22:07:17.757Z,4.60
2022-12-31T22:09:45.406Z,4.33
2022-12-31T22:12:12.662Z,4.73
2022-12-31T22:14:39.561Z,3.80
2022-12-31T22:17:26.757Z,3.97
2022-12-31T22:20:25.415Z,4.80
2022-12-31T22:22:41.475Z,4.57
2022-12-31T22:25:08.815Z,26.17
2022-12-31T22:27:35.587Z,6.67
2022-12-31T22:30:02.402Z,9.07
2022-12-31T22:32:29.079Z,6.67
2022-12-31T22:34:55.818Z,5.90
2022-12-31T22:37:54.892Z,6.20
2022-12-31T22:40:10.309Z,4.73
2022-12-31T22:42:37.418Z,5.40
2022-12-31T22:45:05.955Z,6.47
2022-12-31T22:47:32.822Z,5.73
2022-12-31T22:49:59.591Z,5.53
2022-12-31T22:52:26.771Z,5.63
2022-12-31T22:54:53.614Z,4.97
2022-12-31T22:57:20.601Z,5.50
2022-12-31T22:59:47.346Z,6.17
2022-12-31T23:02:14.287Z,5.57
2022-12-31T23:04:41.038Z,4.63
2022-12-31T23:07:07.839Z,4.47
2022-12-31T23:09:53.312Z,4.50
2022-12-31T23:12:21.200Z,4.57
2022-12-31T23:15:06.450Z,5.37
2022-12-31T23:17:51.808Z,5.00
2022-12-31T23:20:40.853Z,4.77
2022-12-31T23:23:12.457Z,4.37
2022-12-31T23:25:49.678Z,4.63
2022-12-31T23:28:24.992Z,5.00
2022-12-31T23:30:52.653Z,12.37
2022-12-31T23:33:26.031Z,11.73
2022-12-31T23:36:06.292Z,9.07
2022-12-31T23:38:33.090Z,7.80
2022-12-31T23:40:59.774Z,8.43
2022-12-31T23:43:26.845Z,8.80
2022-12-31T23:45:53.720Z,9.67
2022-12-31T23:48:21.204Z,9.87
2022-12-31T23:50:54.501Z,5.57
2022-12-31T23:53:25.122Z,5.87
2022-12-31T23:55:52.943Z,7.43
2022-12-31T23:58:21.257Z,11.27
